Time;durP1;ratioP1;P1;durP2;ratioP2;P2;SDS_P1;SDS_P2;PMS_P1;PMS_P2;Temp;Humidity;BMP_temperature;BMP_pressure;BME280_temperature;BME280_humidity;BME280_pressure;Samples;Min_cycle;Max_cycle;Signal;HPM_P1;HPM_P2
2021/11/29 00:00:59;;;;;;;27.45;6.00;;;;;;;21.80;60.69;100666.84;4913481;29;20054;-68
2021/11/29 00:03:28;;;;;;;29.63;6.15;;;;;;;21.82;60.13;100668.56;4924481;29;20036;-68
2021/11/29 00:05:58;;;;;;;32.92;7.07;;;;;;;21.84;60.34;100665.84;4931416;29;20071;-68
2021/11/29 00:08:26;;;;;;;26.65;5.93;;;;;;;21.83;60.05;100658.69;4909809;29;20040;-68
2021/11/29 00:10:54;;;;;;;30.67;7.47;;;;;;;21.86;59.77;100663.97;4932107;29;20047;-68
2021/11/29 00:13:22;;;;;;;26.98;6.20;;;;;;;21.90;59.54;100664.75;4908347;29;20653;-68
2021/11/29 00:15:50;;;;;;;19.95;6.30;;;;;;;21.90;59.27;100654.88;4918719;29;20399;-68
2021/11/29 00:18:18;;;;;;;30.55;6.15;;;;;;;21.92;59.25;100669.16;4919894;29;20052;-68
2021/11/29 00:20:46;;;;;;;44.00;8.10;;;;;;;21.91;59.33;100667.41;4912856;29;20047;-67
2021/11/29 00:23:16;;;;;;;28.00;6.57;;;;;;;21.94;59.62;100669.09;4913446;29;20441;-67
2021/11/29 00:25:44;;;;;;;34.15;7.60;;;;;;;21.96;59.67;100646.66;4912625;29;20493;-67
2021/11/29 00:28:12;;;;;;;20.55;5.90;;;;;;;21.99;59.36;100653.75;4897700;29;20091;-68
2021/11/29 00:30:41;;;;;;;36.95;7.75;;;;;;;22.02;59.20;100654.50;4912575;29;20091;-67
2021/11/29 00:33:10;;;;;;;31.45;6.53;;;;;;;22.04;59.09;100649.97;4920296;29;20048;-67
2021/11/29 00:35:39;;;;;;;32.85;7.30;;;;;;;22.05;59.40;100648.16;4898521;29;20128;-67
2021/11/29 00:38:08;;;;;;;29.05;7.85;;;;;;;22.05;58.77;100646.34;4925132;29;20040;-67
2021/11/29 00:40:38;;;;;;;33.85;7.55;;;;;;;22.07;59.17;100646.28;4916858;29;20163;-68
2021/11/29 00:43:05;;;;;;;36.72;8.15;;;;;;;22.07;59.32;100662.41;4914467;29;20407;-68
2021/11/29 00:45:33;;;;;;;35.88;6.88;;;;;;;22.08;59.08;100653.41;4919858;29;20044;-68
2021/11/29 00:48:02;;;;;;;37.22;7.40;;;;;;;22.07;59.17;100646.28;4927802;29;20035;-68
2021/11/29 00:50:30;;;;;;;45.72;9.27;;;;;;;22.06;59.50;100647.22;4926400;29;20560;-67
2021/11/29 00:52:57;;;;;;;45.10;7.43;;;;;;;22.06;59.18;100655.28;4914415;29;20044;-68
2021/11/29 00:55:25;;;;;;;36.83;8.00;;;;;;;22.02;59.70;100638.38;4915017;29;20051;-69
2021/11/29 00:57:55;;;;;;;29.45;6.28;;;;;;;22.02;59.60;100659.00;4917130;29;20468;-67
2021/11/29 01:00:23;;;;;;;36.13;6.25;;;;;;;21.97;59.69;100663.66;4919543;29;20505;-67
2021/11/29 01:02:52;;;;;;;34.05;7.07;;;;;;;21.94;60.25;100661.91;4907125;29;20051;-67
2021/11/29 01:05:19;;;;;;;33.83;7.40;;;;;;;21.93;60.08;100648.50;4906893;29;20052;-67
2021/11/29 01:07:47;;;;;;;30.63;6.63;;;;;;;21.91;59.81;100662.03;4908407;29;20127;-68
2021/11/29 01:10:16;;;;;;;36.58;7.53;;;;;;;21.88;60.42;100652.25;4915394;29;22238;-68
2021/11/29 01:12:44;;;;;;;23.85;6.20;;;;;;;21.86;60.20;100661.25;4914485;29;20079;-67
2021/11/29 01:15:20;;;;;;;30.65;7.00;;;;;;;21.86;60.46;100666.66;4911136;29;20536;-67
2021/11/29 01:17:47;;;;;;;40.30;8.32;;;;;;;21.83;60.31;100677.50;4911368;29;20044;-67
2021/11/29 01:20:16;;;;;;;45.85;7.65;;;;;;;21.81;60.84;100677.56;4896853;29;20056;-67
2021/11/29 01:22:46;;;;;;;33.60;7.88;;;;;;;21.80;60.53;100677.59;4915498;29;20044;-67
2021/11/29 01:25:15;;;;;;;32.92;6.80;;;;;;;21.78;60.43;100672.28;4913446;29;20497;-67
2021/11/29 01:27:43;;;;;;;31.00;5.93;;;;;;;21.78;60.47;100672.28;4914886;29;20040;-67
2021/11/29 01:30:13;;;;;;;40.97;7.75;;;;;;;21.79;60.74;100668.66;4889891;29;20048;-67
2021/11/29 01:32:41;;;;;;;33.40;7.20;;;;;;;21.77;60.77;100666.97;4931113;29;20051;-67
2021/11/29 01:35:09;;;;;;;32.42;8.55;;;;;;;21.78;60.79;100666.91;4934128;29;20515;-67
2021/11/29 01:37:37;;;;;;;34.10;6.22;;;;;;;21.77;60.42;100653.53;4916504;29;20125;-67
2021/11/29 01:40:07;;;;;;;28.52;6.97;;;;;;;21.75;60.67;100650.00;4927795;29;20108;-68
2021/11/29 01:42:35;;;;;;;29.73;6.13;;;;;;;21.73;60.82;100657.22;4914943;29;20044;-67
2021/11/29 01:45:04;;;;;;;31.05;7.57;;;;;;;21.77;60.48;100653.53;4915947;29;20040;-67
2021/11/29 01:47:33;;;;;;;36.28;8.48;;;;;;;21.79;60.35;100649.84;4902797;29;20504;-67
2021/11/29 01:50:01;;;;;;;42.15;7.60;;;;;;;21.79;60.36;100636.41;4919347;29;20064;-68
2021/11/29 01:52:29;;;;;;;30.55;7.05;;;;;;;21.79;60.62;100632.84;4916027;29;20512;-67
2021/11/29 01:54:56;;;;;;;41.45;8.82;;;;;;;21.76;60.70;100620.38;4898896;29;20047;-67
2021/11/29 01:57:24;;;;;;;34.20;5.47;;;;;;;21.77;60.33;100622.16;4916220;29;20044;-67
2021/11/29 01:59:51;;;;;;;43.00;6.15;;;;;;;21.79;60.33;100627.50;4902682;29;20077;-67
2021/11/29 02:02:20;;;;;;;34.50;8.52;;;;;;;21.80;59.97;100615.78;4888459;29;20455;-67
2021/11/29 02:04:49;;;;;;;30.45;7.03;;;;;;;21.83;59.96;100615.69;4882280;29;20446;-67
2021/11/29 02:07:17;;;;;;;15.30;5.18;;;;;;;21.87;59.19;100620.03;4895765;29;20446;-67
2021/11/29 02:09:45;;;;;;;29.13;6.45;;;;;;;21.93;59.18;100601.00;4902805;29;20187;-67
2021/11/29 02:12:13;;;;;;;29.30;6.80;;;;;;;21.98;57.96;100599.09;4912940;29;20044;-67
2021/11/29 02:14:40;;;;;;;26.67;7.45;;;;;;;22.04;57.84;100598.00;4896516;29;20068;-67
2021/11/29 02:17:08;;;;;;;32.17;7.00;;;;;;;22.07;57.10;100579.06;4910723;29;20048;-68
2021/11/29 02:19:40;;;;;;;32.15;7.32;;;;;;;22.14;57.07;100583.28;4914376;29;20064;-68
2021/11/29 02:22:09;;;;;;;30.38;6.95;;;;;;;;;;4914522;29;20076;-67
2021/11/29 02:24:37;;;;;;;30.35;6.63;;;;;;;22.22;56.21;100576.72;4913275;29;20064;-67
2021/11/29 02:27:05;;;;;;;35.53;7.07;;;;;;;22.30;56.34;100568.38;4907856;29;20059;-68
2021/11/29 02:29:34;;;;;;;34.08;6.50;;;;;;;22.33;55.70;100562.00;4910434;29;20189;-68
2021/11/29 02:32:02;;;;;;;28.25;6.47;;;;;;;22.35;55.59;100569.09;4894630;29;20044;-68
2021/11/29 02:34:31;;;;;;;29.63;6.88;;;;;;;22.42;55.11;100569.75;4895403;29;20040;-68
2021/11/29 02:37:02;;;;;;;29.65;6.55;;;;;;;22.46;54.91;100561.50;4910051;29;20044;-68
2021/11/29 02:39:32;;;;;;;34.33;7.45;;;;;;;22.53;54.70;100567.53;4896243;29;20124;-68
2021/11/29 02:42:03;;;;;;;32.20;6.85;;;;;;;22.51;54.52;100562.22;4896776;29;20049;-67
2021/11/29 02:44:31;;;;;;;29.90;6.05;;;;;;;22.50;54.46;100556.91;4895176;29;20100;-68
2021/11/29 02:46:59;;;;;;;30.10;6.93;;;;;;;22.54;54.22;100561.22;4904384;29;20044;-68
2021/11/29 02:49:27;;;;;;;26.98;5.78;;;;;;;22.57;54.17;100555.75;4876594;29;20037;-67
2021/11/29 02:51:57;;;;;;;32.00;5.82;;;;;;;22.61;54.20;100563.66;4878887;29;20049;-67
2021/11/29 02:54:28;;;;;;;24.15;6.45;;;;;;;22.66;53.73;100550.00;4904966;29;20050;-68
2021/11/29 02:57:00;;;;;;;33.13;7.22;;;;;;;22.68;53.82;100545.47;4897203;29;20555;-69
2021/11/29 02:59:29;;;;;;;24.65;5.55;;;;;;;22.65;53.94;100549.13;4925886;29;20049;-67
2021/11/29 03:02:01;;;;;;;31.52;6.13;;;;;;;22.69;53.94;100520.31;4915816;29;20044;-68
2021/11/29 03:04:31;;;;;;;34.42;5.65;;;;;;;22.69;54.07;100523.00;4901835;29;20371;-67
2021/11/29 03:06:59;;;;;;;34.55;6.50;;;;;;;22.67;53.94;100531.13;4915202;29;20039;-67
2021/11/29 03:09:30;;;;;;;34.65;6.18;;;;;;;22.65;54.29;100530.28;4925750;29;20098;-68
2021/11/29 03:11:59;;;;;;;30.80;6.68;;;;;;;22.66;54.11;100518.59;4931008;29;20036;-68
2021/11/29 03:14:28;;;;;;;27.08;7.55;;;;;;;22.67;54.01;100522.16;4900034;29;20051;-68
2021/11/29 03:16:56;;;;;;;30.08;6.20;;;;;;;22.73;53.68;100518.38;4928517;29;20484;-68
2021/11/29 03:19:29;;;;;;;24.45;5.18;;;;;;;22.69;54.03;100504.16;4932173;29;20068;-68
2021/11/29 03:21:57;;;;;;;24.25;6.30;;;;;;;22.66;54.00;100512.31;4931131;29;20048;-67
2021/11/29 03:24:25;;;;;;;29.42;5.97;;;;;;;22.71;53.65;100510.31;4927075;29;20119;-68
2021/11/29 03:26:53;;;;;;;44.35;6.45;;;;;;;22.71;53.56;100537.25;4914110;29;20516;-67
2021/11/29 03:29:22;;;;;;;30.08;6.07;;;;;;;22.71;53.68;100523.78;4913035;29;20080;-67
2021/11/29 03:31:52;;;;;;;25.75;6.35;;;;;;;22.69;53.74;100528.38;4896379;29;20119;-67
2021/11/29 03:34:21;;;;;;;22.80;6.03;;;;;;;22.68;54.12;100545.47;4896701;29;20044;-67
2021/11/29 03:36:50;;;;;;;22.83;5.97;;;;;;;22.67;53.94;100520.34;4913377;29;20047;-67
2021/11/29 03:39:21;;;;;;;28.05;5.70;;;;;;;22.68;54.38;100548.16;4913361;29;20115;-67
2021/11/29 03:41:49;;;;;;;33.08;7.93;;;;;;;22.65;54.24;100541.06;4926480;29;20055;-67
2021/11/29 03:44:18;;;;;;;29.92;6.32;;;;;;;22.63;54.53;100537.56;4919317;29;20123;-66
2021/11/29 03:46:49;;;;;;;28.17;5.35;;;;;;;22.62;54.47;100548.38;4921641;29;20103;-67
2021/11/29 03:49:17;;;;;;;29.05;6.07;;;;;;;22.54;55.22;100561.22;4931907;29;20058;-67
2021/11/29 03:51:44;;;;;;;32.97;6.80;;;;;;;22.50;55.49;100562.28;4914897;29;20040;-67
2021/11/29 03:54:12;;;;;;;39.05;6.93;;;;;;;22.49;55.50;100557.84;4915066;29;20055;-66
2021/11/29 03:56:40;;;;;;;26.08;6.30;;;;;;;22.45;55.43;100551.66;4895824;29;20104;-68
2021/11/29 03:59:08;;;;;;;29.45;6.47;;;;;;;22.44;55.70;100554.44;4896119;29;20044;-66
2021/11/29 04:01:35;;;;;;;35.03;7.32;;;;;;;22.42;55.89;100548.22;4912904;29;20040;-66
2021/11/29 04:04:05;;;;;;;36.85;7.38;;;;;;;22.41;55.74;100566.19;4921982;29;20514;-67
2021/11/29 04:06:33;;;;;;;25.42;6.47;;;;;;;22.39;55.62;100561.78;4909013;29;20100;-67
2021/11/29 04:09:02;;;;;;;28.77;6.05;;;;;;;22.40;55.80;100575.19;4908067;29;20055;-67
2021/11/29 04:11:30;;;;;;;38.92;6.65;;;;;;;22.37;56.26;100579.81;4916392;29;20118;-67
2021/11/29 04:13:58;;;;;;;26.30;5.00;;;;;;;22.33;56.02;100583.53;4904053;29;20048;-67
2021/11/29 04:16:25;;;;;;;24.00;5.40;;;;;;;22.32;55.96;100608.69;4914077;29;20076;-67
2021/11/29 04:18:53;;;;;;;36.97;7.03;;;;;;;22.32;56.18;100627.53;4898563;29;20603;-68
2021/11/29 04:21:23;;;;;;;32.70;6.05;;;;;;;22.33;56.50;100614.00;4886128;29;20060;-67
2021/11/29 04:23:51;;;;;;;22.92;5.18;;;;;;;22.34;56.08;100623.81;4912470;29;20048;-67
2021/11/29 04:26:19;;;;;;;27.35;5.38;;;;;;;22.37;56.29;100628.22;4899329;29;20052;-67
2021/11/29 04:28:49;;;;;;;27.85;6.43;;;;;;;22.38;55.84;100617.44;4905451;29;20060;-67
2021/11/29 04:31:17;;;;;;;22.10;4.93;;;;;;;22.42;55.51;100607.41;4899072;29;20063;-67
2021/11/29 04:33:44;;;;;;;26.75;5.53;;;;;;;22.45;55.50;100604.63;4913086;29;20413;-67
2021/11/29 04:36:12;;;;;;;27.98;5.65;;;;;;;22.44;55.18;100600.19;4916709;29;20119;-67
2021/11/29 04:38:41;;;;;;;31.85;7.20;;;;;;;22.49;55.39;100588.31;4908117;29;20044;-67
2021/11/29 04:41:09;;;;;;;22.55;5.03;;;;;;;22.48;55.51;100597.31;4890572;29;20051;-67
2021/11/29 04:43:37;;;;;;;21.48;5.05;;;;;;;22.46;55.59;100611.75;4920996;29;20048;-67
2021/11/29 04:46:05;;;;;;;20.73;4.88;;;;;;;22.46;55.72;100574.06;4925061;29;20064;-67
2021/11/29 04:48:32;;;;;;;28.38;5.90;;;;;;;22.47;55.37;100586.59;4917255;29;20135;-67
2021/11/29 04:51:00;;;;;;;28.65;5.93;;;;;;;22.43;55.59;100579.59;4912572;29;20055;-67
2021/11/29 04:53:28;;;;;;;31.85;6.40;;;;;;;22.37;56.25;100583.38;4920610;29;20095;-67
2021/11/29 04:55:57;;;;;;;26.05;5.47;;;;;;;22.36;56.22;100578.06;4910134;29;20040;-67
2021/11/29 04:58:24;;;;;;;28.85;6.57;;;;;;;22.31;56.53;100567.47;4902598;29;20056;-67
2021/11/29 05:00:52;;;;;;;31.48;6.60;;;;;;;22.29;56.96;100555.00;4915592;29;20064;-66
2021/11/29 05:03:21;;;;;;;23.27;5.72;;;;;;;22.26;56.74;100548.78;4915927;29;20475;-66
2021/11/29 05:05:49;;;;;;;26.75;5.53;;;;;;;22.24;57.00;100547.97;4898599;29;20075;-67
2021/11/29 05:08:16;;;;;;;26.42;4.82;;;;;;;22.27;57.32;100547.84;4916705;29;20048;-66
2021/11/29 05:10:44;;;;;;;24.48;6.28;;;;;;;22.29;57.29;100558.56;4916119;29;20521;-67
2021/11/29 05:13:14;;;;;;;14.85;5.43;;;;;;;22.32;57.48;100550.38;4915935;29;20051;-67
2021/11/29 05:15:42;;;;;;;28.05;5.57;;;;;;;22.30;57.60;100541.50;4905727;29;20565;-67
2021/11/29 05:18:09;;;;;;;28.48;6.22;;;;;;;22.33;57.84;100551.25;4932194;29;20125;-67
2021/11/29 05:20:37;;;;;;;25.17;6.45;;;;;;;22.32;57.96;100558.44;4916755;29;20048;-67
2021/11/29 05:23:05;;;;;;;37.92;6.50;;;;;;;22.32;58.10;100550.38;4882884;29;20469;-67
2021/11/29 05:25:33;;;;;;;28.00;6.88;;;;;;;22.33;58.14;100546.75;4920329;29;20461;-67
2021/11/29 05:28:00;;;;;;;30.50;6.90;;;;;;;22.32;58.24;100539.59;4902228;29;20096;-67
2021/11/29 05:30:33;;;;;;;28.25;7.75;;;;;;;22.33;58.32;100541.38;4906202;29;20049;-67
2021/11/29 05:33:01;;;;;;;41.93;10.07;;;;;;;22.33;58.30;100562.88;4896826;29;20128;-68
2021/11/29 05:35:29;;;;;;;25.02;6.13;;;;;;;22.34;58.59;100558.38;4902989;29;20040;-67
2021/11/29 05:37:57;;;;;;;20.02;5.65;;;;;;;22.34;59.02;100556.56;4914551;29;20044;-69
2021/11/29 05:40:24;;;;;;;24.90;5.65;;;;;;;22.35;59.10;100555.66;4887647;29;20056;-67
2021/11/29 05:42:52;;;;;;;26.98;6.00;;;;;;;22.39;58.94;100562.66;4876759;29;20045;-67
2021/11/29 05:45:20;;;;;;;23.05;4.93;;;;;;;22.41;58.75;100560.81;4900966;29;20045;-67
2021/11/29 05:47:49;;;;;;;23.30;5.93;;;;;;;22.43;58.83;100558.06;4905700;29;20501;-68
2021/11/29 05:50:19;;;;;;;24.65;7.15;;;;;;;22.45;58.87;100566.97;4912039;29;20526;-67
2021/11/29 05:52:47;;;;;;;27.25;9.52;;;;;;;22.46;59.03;100563.31;4895365;29;20061;-67
2021/11/29 05:55:16;;;;;;;36.80;13.82;;;;;;;22.47;59.53;100570.47;4895266;29;20133;-66
2021/11/29 05:57:45;;;;;;;34.28;13.55;;;;;;;22.45;59.76;100569.66;4895020;29;20048;-67
2021/11/29 06:00:16;;;;;;;29.20;11.02;;;;;;;22.46;59.52;100563.31;4896139;29;20081;-66
2021/11/29 06:02:44;;;;;;;30.02;12.52;;;;;;;22.50;59.61;100564.97;4894174;29;20057;-67
2021/11/29 06:05:14;;;;;;;30.17;13.18;;;;;;;22.57;59.78;100563.81;4906475;29;20052;-66
2021/11/29 06:07:42;;;;;;;36.20;15.90;;;;;;;22.66;59.42;100563.47;4896822;29;20056;-67
2021/11/29 06:10:11;;;;;;;32.10;14.25;;;;;;;22.80;59.47;100562.97;4909839;29;20033;-66
2021/11/29 06:12:39;;;;;;;31.20;11.55;;;;;;;22.94;59.11;100560.66;4902989;29;20059;-67
2021/11/29 06:15:08;;;;;;;32.25;6.97;;;;;;;23.10;58.44;100558.25;4910764;29;20127;-66
2021/11/29 06:17:36;;;;;;;32.95;7.35;;;;;;;23.25;58.26;100566.59;4913279;29;20036;-67
2021/11/29 06:20:04;;;;;;;25.67;5.88;;;;;;;23.41;57.39;100566.84;4912367;29;20055;-67
2021/11/29 06:22:34;;;;;;;28.95;6.63;;;;;;;23.60;56.81;100551.72;4844642;29;1680843;-68
2021/11/29 06:25:02;;;;;;;33.85;7.07;;;;;;;23.69;56.33;100567.53;4936140;29;20035;-67
2021/11/29 06:27:30;;;;;;;29.83;6.35;;;;;;;23.78;56.12;100580.59;4911241;29;20556;-68
2021/11/29 06:29:58;;;;;;;28.55;5.15;;;;;;;23.91;55.76;100589.06;4901446;29;20485;-67
2021/11/29 06:32:26;;;;;;;22.88;5.57;;;;;;;24.03;55.36;100561.56;4905124;29;20159;-67
2021/11/29 06:34:54;;;;;;;27.75;5.97;;;;;;;24.11;55.50;100586.38;4892575;29;20052;-66
2021/11/29 06:37:27;;;;;;;24.70;5.30;;;;;;;24.19;55.64;100589.69;4902381;29;20040;-66
2021/11/29 06:39:58;;;;;;;27.83;6.55;;;;;;;24.28;55.35;100588.41;4887184;29;20059;-68
2021/11/29 06:42:27;;;;;;;23.98;5.70;;;;;;;24.26;55.37;100584.91;4898027;29;20624;-67
2021/11/29 06:44:55;;;;;;;28.17;6.93;;;;;;;24.19;55.45;100588.78;4879977;29;20044;-67
2021/11/29 06:47:22;;;;;;;25.13;4.72;;;;;;;24.11;55.72;100581.00;4873519;29;20140;-67
2021/11/29 06:49:51;;;;;;;29.60;6.57;;;;;;;24.08;55.85;100570.34;4884061;29;20100;-66
2021/11/29 06:52:18;;;;;;;25.50;5.50;;;;;;;24.02;56.07;100585.94;4883809;29;20045;-67
2021/11/29 06:54:48;;;;;;;32.72;5.47;;;;;;;24.00;56.43;100591.38;4892587;29;20037;-67
2021/11/29 06:57:18;;;;;;;32.70;7.72;;;;;;;24.10;56.45;100590.03;4906046;29;20048;-67
2021/11/29 06:59:47;;;;;;;34.95;6.68;;;;;;;24.22;56.51;100599.44;4887625;29;20131;-67
2021/11/29 07:02:16;;;;;;;29.40;6.38;;;;;;;24.32;56.33;100618.81;4884478;29;20053;-67
2021/11/29 07:04:44;;;;;;;30.42;5.47;;;;;;;24.38;56.26;100623.94;4903887;29;20390;-67
2021/11/29 07:07:12;;;;;;;23.63;8.23;;;;;;;24.48;56.21;100626.16;4894628;29;20409;-67
2021/11/29 07:09:40;;;;;;;24.92;5.57;;;;;;;24.54;55.98;100647.53;4895204;29;20040;-67
2021/11/29 07:12:08;;;;;;;36.08;8.68;;;;;;;24.56;56.01;100642.03;4902212;29;20593;-67
2021/11/29 07:14:37;;;;;;;33.08;7.22;;;;;;;24.52;56.03;100635.03;4900837;29;20037;-68
2021/11/29 07:17:05;;;;;;;26.23;10.00;;;;;;;24.43;56.65;100630.91;4879104;29;20111;-67
2021/11/29 07:19:34;;;;;;;25.20;5.60;;;;;;;24.41;56.71;100635.50;4894878;29;20131;-67
2021/11/29 07:22:02;;;;;;;32.78;7.53;;;;;;;24.42;56.79;100637.22;4895039;29;20044;-67
2021/11/29 07:24:30;;;;;;;30.05;7.75;;;;;;;24.38;57.04;100632.94;4893996;29;20072;-68
2021/11/29 07:26:58;;;;;;;34.35;9.00;;;;;;;24.38;57.21;100637.44;4877594;29;20131;-67
2021/11/29 07:29:26;;;;;;;27.25;5.57;;;;;;;24.36;57.36;100651.00;4894212;29;20056;-67
2021/11/29 07:31:55;;;;;;;30.55;5.88;;;;;;;24.32;57.31;100641.28;4921825;29;20048;-67
2021/11/29 07:34:22;;;;;;;33.85;6.22;;;;;;;24.25;57.75;100642.50;4921501;29;20512;-67
2021/11/29 07:36:50;;;;;;;22.15;4.70;;;;;;;24.30;57.72;100645.88;4922122;29;20055;-67
2021/11/29 07:39:18;;;;;;;29.45;6.32;;;;;;;24.35;57.67;100654.63;4903723;29;20056;-67
2021/11/29 07:41:45;;;;;;;26.15;6.38;;;;;;;24.41;58.05;100648.13;4914995;29;20068;-67
2021/11/29 07:44:13;;;;;;;29.70;7.93;;;;;;;24.47;58.00;100648.75;4896479;29;20036;-67
2021/11/29 07:46:41;;;;;;;34.08;11.10;;;;;;;24.50;58.13;100677.41;4888371;29;20059;-67
2021/11/29 07:49:10;;;;;;;27.48;10.15;;;;;;;24.55;58.46;100673.56;4878813;29;20049;-67
2021/11/29 07:51:38;;;;;;;34.53;8.45;;;;;;;24.60;58.49;100673.38;4875920;29;20041;-67
2021/11/29 07:54:05;;;;;;;32.35;10.55;;;;;;;24.59;58.55;100677.00;4880230;29;20072;-67
2021/11/29 07:56:33;;;;;;;29.33;8.02;;;;;;;24.59;58.78;100667.09;4884818;29;20739;-67
2021/11/29 07:59:01;;;;;;;32.20;8.13;;;;;;;24.56;59.13;100663.63;4892864;29;20063;-68
2021/11/29 08:01:28;;;;;;;25.40;6.13;;;;;;;24.53;59.10;100664.66;4899886;29;20049;-67
2021/11/29 08:03:56;;;;;;;31.48;6.20;;;;;;;24.55;59.31;100661.88;4883131;29;20568;-66
2021/11/29 08:06:25;;;;;;;26.10;7.30;;;;;;;24.55;59.35;100651.94;4913045;29;20139;-68
2021/11/29 08:08:53;;;;;;;37.53;15.48;;;;;;;24.54;59.50;100663.72;4906214;29;20041;-67
2021/11/29 08:11:21;;;;;;;39.03;14.23;;;;;;;24.61;59.82;100665.19;4893198;29;20140;-67
2021/11/29 08:13:48;;;;;;;28.88;7.60;;;;;;;24.61;59.51;100658.94;4889757;29;20505;-67
2021/11/29 08:16:16;;;;;;;34.67;9.88;;;;;;;24.59;59.93;100664.41;4893782;29;20056;-67
2021/11/29 08:18:45;;;;;;;28.90;6.78;;;;;;;24.59;59.99;100666.22;4898649;29;20112;-67
2021/11/29 08:21:12;;;;;;;25.92;6.15;;;;;;;24.52;59.88;100665.59;4886288;29;20119;-67
2021/11/29 08:23:42;;;;;;;31.05;8.05;;;;;;;24.52;59.90;100656.63;4888663;29;20053;-66
2021/11/29 08:26:10;;;;;;;37.67;6.82;;;;;;;24.50;60.08;100653.09;4889200;29;20056;-67
2021/11/29 08:28:38;;;;;;;32.88;7.43;;;;;;;24.56;59.89;100656.41;4888963;29;20405;-67
2021/11/29 08:31:06;;;;;;;33.47;6.35;;;;;;;24.62;60.19;100661.53;4893091;29;20033;-67
2021/11/29 08:33:34;;;;;;;38.38;9.13;;;;;;;24.70;59.72;100644.13;4890097;29;20041;-67
2021/11/29 08:36:02;;;;;;;27.27;7.03;;;;;;;24.69;59.81;100643.25;4885346;29;20041;-66
2021/11/29 08:38:30;;;;;;;27.15;7.38;;;;;;;24.75;60.19;100653.78;4895842;29;20390;-67
2021/11/29 08:40:59;;;;;;;32.47;7.47;;;;;;;24.83;59.81;100646.22;4926535;29;20048;-68
2021/11/29 08:43:26;;;;;;;30.55;7.85;;;;;;;24.80;59.38;100623.88;4907493;29;20080;-67
2021/11/29 08:45:54;;;;;;;29.73;6.15;;;;;;;24.73;59.61;100636.78;4916706;29;20566;-66
2021/11/29 08:48:26;;;;;;;33.72;11.75;;;;;;;24.76;60.21;100630.34;4884971;29;20056;-66
2021/11/29 08:50:57;;;;;;;48.25;10.07;;;;;;;24.82;60.05;100646.28;4892876;29;20493;-67
2021/11/29 08:53:27;;;;;;;38.67;7.75;;;;;;;24.80;59.80;100640.09;4909774;29;20144;-67
2021/11/29 08:55:56;;;;;;;47.83;9.68;;;;;;;24.80;59.96;100624.75;4878735;29;20538;-67
2021/11/29 08:58:26;;;;;;;31.30;7.60;;;;;;;24.80;60.28;100640.09;4902811;29;20128;-68
2021/11/29 09:00:56;;;;;;;37.17;8.32;;;;;;;24.86;60.20;100637.09;4892984;29;20131;-68
2021/11/29 09:03:24;;;;;;;32.50;8.20;;;;;;;24.84;60.08;100612.88;4898541;29;20076;-68
2021/11/29 09:05:52;;;;;;;40.22;9.50;;;;;;;24.83;60.22;100629.13;4895561;29;20044;-69
2021/11/29 09:08:20;;;;;;;32.58;7.57;;;;;;;24.76;60.01;100623.13;4908261;29;20064;-68
2021/11/29 09:10:49;;;;;;;56.40;15.00;;;;;;;24.77;60.60;100645.59;4886793;29;20483;-67
2021/11/29 09:13:18;;;;;;;47.20;16.67;;;;;;;24.84;60.98;100617.38;4908348;29;20095;-68
2021/11/29 09:15:48;;;;;;;38.53;19.83;;;;;;;24.89;60.38;100642.34;4910343;29;20513;-67
2021/11/29 09:18:16;;;;;;;54.38;24.77;;;;;;;24.91;60.34;100635.09;4912134;29;20066;-67
2021/11/29 09:20:45;;;;;;;48.72;23.13;;;;;;;24.88;60.34;100610.88;4894625;29;20113;-67
2021/11/29 09:23:14;;;;;;;58.10;26.13;;;;;;;24.88;60.61;100594.69;4901094;29;20040;-68
2021/11/29 09:25:42;;;;;;;38.83;12.95;;;;;;;24.89;60.69;100613.56;4900164;29;20053;-67
2021/11/29 09:28:11;;;;;;;47.30;23.65;;;;;;;24.94;60.92;100614.22;4899596;29;20044;-67
2021/11/29 09:30:39;;;;;;;49.30;11.18;;;;;;;24.96;60.60;100615.03;4905406;29;20083;-67
2021/11/29 09:33:09;;;;;;;52.05;17.35;;;;;;;24.98;60.58;100614.97;4904861;29;20051;-66
2021/11/29 09:35:37;;;;;;;44.72;18.88;;;;;;;25.01;60.96;100606.69;4904099;29;20404;-68
2021/11/29 09:38:05;;;;;;;38.40;9.80;;;;;;;25.09;60.97;100609.06;4899341;29;20124;-68
2021/11/29 09:40:38;;;;;;;41.00;10.68;;;;;;;25.20;60.48;100615.72;4877239;29;20045;-67
2021/11/29 09:43:08;;;;;;;37.70;13.57;;;;;;;25.34;60.47;100605.13;4894312;29;20527;-67
2021/11/29 09:45:38;;;;;;;38.20;9.13;;;;;;;25.40;60.02;100614.78;4910629;29;20044;-67
2021/11/29 09:48:09;;;;;;;55.92;12.95;;;;;;;25.46;59.74;100591.97;4911837;29;20544;-67
2021/11/29 09:50:40;;;;;;;60.58;14.73;;;;;;;25.53;60.02;100615.06;4909135;29;20119;-67
2021/11/29 09:53:09;;;;;;;47.75;18.40;;;;;;;25.62;59.82;100596.59;4906634;29;20062;-67
2021/11/29 09:55:37;;;;;;;50.97;26.15;;;;;;;25.58;59.59;100581.47;4896514;29;20032;-67
2021/11/29 09:58:06;;;;;;;54.05;25.10;;;;;;;25.49;59.84;100576.47;4921489;29;20039;-67
2021/11/29 10:00:37;;;;;;;50.53;26.02;;;;;;;25.43;59.88;100571.38;4909153;29;20040;-67
2021/11/29 10:03:06;;;;;;;57.20;24.25;;;;;;;25.39;60.27;100565.25;4895989;29;20055;-67
2021/11/29 10:05:36;;;;;;;69.35;30.58;;;;;;;25.41;60.22;100559.75;4892997;29;20398;-67
2021/11/29 10:08:19;;;;;;;50.85;14.95;;;;;;;25.49;60.39;100548.56;4914549;29;20040;-67
2021/11/29 10:10:49;;;;;;;43.95;19.58;;;;;;;25.56;60.95;100550.00;4913338;29;20056;-67
2021/11/29 10:13:17;;;;;;;57.90;19.55;;;;;;;25.59;60.92;100552.59;4914587;29;20051;-67
2021/11/29 10:15:45;;;;;;;59.92;23.02;;;;;;;25.60;60.90;100568.72;4928785;29;20068;-67
2021/11/29 10:18:15;;;;;;;52.25;20.83;;;;;;;25.71;60.67;100565.50;4914658;29;20048;-67
2021/11/29 10:21:05;;;;;;;54.58;20.85;;;;;;;25.72;60.12;100576.25;4910557;29;20054;-67
2021/11/29 10:23:39;;;;;;;52.55;18.33;;;;;;;25.69;60.70;100575.53;4895548;29;20120;-67
2021/11/29 10:26:09;;;;;;;60.75;13.95;;;;;;;25.72;60.96;100575.38;4894185;29;20051;-67
2021/11/29 10:28:39;;;;;;;59.13;19.08;;;;;;;25.79;61.33;100579.53;4896016;29;20048;-67
2021/11/29 10:31:13;;;;;;;62.33;22.30;;;;;;;25.91;60.87;100575.31;4903276;29;20051;-66
2021/11/29 10:33:59;;;;;;;61.17;15.35;;;;;;;25.94;60.53;100589.56;4912050;29;20052;-66
2021/11/29 10:36:33;;;;;;;58.80;11.55;;;;;;;25.84;60.18;100582.88;4911833;29;20059;-67
2021/11/29 10:39:05;;;;;;;57.28;13.77;;;;;;;25.67;60.86;100577.41;4923802;29;20040;-66
2021/11/29 10:41:36;;;;;;;64.07;12.63;;;;;;;25.56;60.93;100588.75;4908639;29;20073;-67
2021/11/29 10:44:07;;;;;;;81.90;14.70;;;;;;;25.50;61.62;100588.16;4894309;29;20064;-67
2021/11/29 10:46:36;;;;;;;58.30;13.65;;;;;;;25.47;61.52;100588.34;4911213;29;20468;-67
2021/11/29 10:49:08;;;;;;;72.28;13.68;;;;;;;25.39;62.10;100591.41;4913522;29;20044;-67
2021/11/29 10:51:38;;;;;;;62.33;13.07;;;;;;;25.31;62.38;100578.25;4908039;29;20044;-67
2021/11/29 10:54:09;;;;;;;66.97;13.73;;;;;;;25.24;62.36;100584.91;4904680;29;20048;-66
2021/11/29 10:56:42;;;;;;;73.65;17.55;;;;;;;25.25;62.53;100578.56;4897565;29;20044;-67
2021/11/29 10:59:13;;;;;;;71.93;12.75;;;;;;;25.23;62.55;100574.16;4909214;29;20048;-67
2021/11/29 11:01:44;;;;;;;85.05;17.58;;;;;;;25.20;62.54;100583.31;4914757;29;20584;-67
2021/11/29 11:04:18;;;;;;;73.22;15.52;;;;;;;25.26;62.60;100568.63;4911605;29;20056;-67
2021/11/29 11:06:48;;;;;;;;;;;;;;;25.25;62.32;100594.75;4898296;29;20048;-67
2021/11/29 11:09:21;;;;;;;113.70;23.15;;;;;;;25.38;62.01;100573.44;4902206;29;20000;-68
2021/11/29 11:11:51;;;;;;;73.35;16.10;;;;;;;25.33;62.07;100561.97;4902550;29;20052;-67
2021/11/29 11:14:21;;;;;;;62.22;13.73;;;;;;;25.34;61.04;100580.78;4910038;29;20230;-68
2021/11/29 11:16:58;;;;;;;84.15;15.95;;;;;;;25.40;61.28;100574.22;4913406;29;20068;-68
2021/11/29 11:19:37;;;;;;;71.05;16.40;;;;;;;25.47;61.36;100580.22;4907395;29;20048;-66
2021/11/29 11:22:19;;;;;;;68.07;13.52;;;;;;;25.37;61.65;100561.72;4887722;29;20515;-66
2021/11/29 11:24:50;;;;;;;72.80;12.52;;;;;;;25.22;61.54;100577.81;4892182;29;20049;-66